createdAt,value
2023-01-01T00:01:53.406Z,59.50
2023-01-01T00:04:21.304Z,59.39
2023-01-01T00:06:50.625Z,59.41
2023-01-01T00:09:44.317Z,59.39
2023-01-01T00:12:12.272Z,59.60
2023-01-01T00:14:42.904Z,59.43
2023-01-01T00:17:10.980Z,59.41
2023-01-01T00:19:38.908Z,59.66
2023-01-01T00:22:43.735Z,59.79
2023-01-01T00:24:56.139Z,59.68
2023-01-01T00:27:24.043Z,60.02
2023-01-01T00:29:51.937Z,59.80
2023-01-01T00:32:22.864Z,59.81
2023-01-01T00:34:51.203Z,60.19
2023-01-01T00:37:20.511Z,60.01
2023-01-01T00:39:48.524Z,59.92
2023-01-01T00:42:16.488Z,59.87
2023-01-01T00:44:44.432Z,60.19
2023-01-01T00:47:12.351Z,60.04
2023-01-01T00:49:40.314Z,59.78
2023-01-01T00:52:08.259Z,59.76
2023-01-01T00:54:37.585Z,60.03
2023-01-01T00:57:05.589Z,59.85
2023-01-01T00:59:33.544Z,59.82
2023-01-01T01:02:01.583Z,59.89
2023-01-01T01:04:29.594Z,60.10
2023-01-01T01:06:57.543Z,60.06
2023-01-01T01:09:25.514Z,59.71
2023-01-01T01:12:17.594Z,59.97
2023-01-01T01:14:42.774Z,60.05
2023-01-01T01:17:10.676Z,59.80
2023-01-01T01:19:38.622Z,60.00
2023-01-01T01:22:06.611Z,59.80
2023-01-01T01:24:34.571Z,59.85
2023-01-01T01:27:03.943Z,59.98
2023-01-01T01:29:31.851Z,59.86
2023-01-01T01:31:59.757Z,59.49
2023-01-01T01:34:28.511Z,59.59
2023-01-01T01:36:56.513Z,59.72
2023-01-01T01:39:24.469Z,59.61
2023-01-01T01:41:52.430Z,59.83
2023-01-01T01:44:56.685Z,59.78
2023-01-01T01:47:28.157Z,60.09
2023-01-01T01:49:57.524Z,60.00
2023-01-01T01:52:26.338Z,60.09
2023-01-01T01:54:54.442Z,59.96
2023-01-01T01:57:22.355Z,59.87
2023-01-01T01:59:50.816Z,60.05
2023-01-01T02:02:24.395Z,59.88
2023-01-01T02:04:52.380Z,59.86
2023-01-01T02:07:20.274Z,60.13
2023-01-01T02:09:48.308Z,60.05
2023-01-01T02:12:16.227Z,59.66
2023-01-01T02:14:44.181Z,60.00
2023-01-01T02:17:14.584Z,59.76
2023-01-01T02:19:55.602Z,59.62
2023-01-01T02:22:26.048Z,59.50
2023-01-01T02:25:01.167Z,59.45
2023-01-01T02:27:32.361Z,59.60
2023-01-01T02:30:02.585Z,59.46
2023-01-01T02:32:32.635Z,59.39
2023-01-01T02:35:23.015Z,59.28
2023-01-01T02:37:52.030Z,59.26
2023-01-01T02:40:20.033Z,59.41
2023-01-01T02:42:47.947Z,59.40
2023-01-01T02:45:17.272Z,59.15
2023-01-01T02:47:45.212Z,59.51
2023-01-01T02:50:14.870Z,59.44
2023-01-01T02:53:02.070Z,59.39
2023-01-01T02:55:37.173Z,59.58
2023-01-01T02:58:22.151Z,59.47
2023-01-01T03:00:51.530Z,59.43
2023-01-01T03:03:20.704Z,59.32
2023-01-01T03:06:09.606Z,59.06
2023-01-01T03:08:42.172Z,59.25
2023-01-01T03:11:11.302Z,59.04
2023-01-01T03:13:42.039Z,59.27
2023-01-01T03:16:14.234Z,59.17
2023-01-01T03:18:45.299Z,59.09
2023-01-01T03:23:47.814Z,58.95
2023-01-01T03:26:17.609Z,58.87
2023-01-01T03:28:47.663Z,58.79
2023-01-01T03:31:18.402Z,58.81
2023-01-01T03:33:47.447Z,58.84
2023-01-01T03:36:16.552Z,58.87
2023-01-01T03:38:46.116Z,58.95
2023-01-01T03:41:16.368Z,58.52
2023-01-01T03:43:49.397Z,58.83
2023-01-01T03:46:18.921Z,58.71
2023-01-01T03:49:03.841Z,58.84
2023-01-01T03:51:44.670Z,58.73
2023-01-01T03:54:15.146Z,58.88
2023-01-01T03:56:45.681Z,58.79
2023-01-01T03:59:15.879Z,58.76
2023-01-01T04:01:46.446Z,58.62
2023-01-01T04:04:14.418Z,58.71
2023-01-01T04:06:42.334Z,58.82
2023-01-01T04:09:11.161Z,58.66
2023-01-01T04:11:56.532Z,58.91
2023-01-01T04:14:29.322Z,58.97
2023-01-01T04:16:58.823Z,59.39
2023-01-01T04:19:26.786Z,59.18
2023-01-01T04:21:54.731Z,59.43
2023-01-01T04:24:23.452Z,59.54
2023-01-01T04:26:51.457Z,59.30
2023-01-01T04:29:19.580Z,59.61
2023-01-01T04:31:47.511Z,59.70
2023-01-01T04:34:16.793Z,59.98
2023-01-01T04:36:44.727Z,60.00
2023-01-01T04:39:12.747Z,59.89
2023-01-01T04:41:40.690Z,60.02
2023-01-01T04:44:08.626Z,60.21
2023-01-01T04:46:36.590Z,60.07
2023-01-01T04:49:04.677Z,59.98
2023-01-01T04:51:34.065Z,60.05
2023-01-01T04:54:02.401Z,60.19
2023-01-01T04:56:30.580Z,60.30
2023-01-01T04:58:58.738Z,60.26
2023-01-01T05:01:27.915Z,60.22
2023-01-01T05:03:57.322Z,60.25
2023-01-01T05:06:25.591Z,60.50
2023-01-01T05:08:55.688Z,60.61
2023-01-01T05:11:24.450Z,60.47
2023-01-01T05:13:53.184Z,60.59
2023-01-01T05:16:22.395Z,60.45
2023-01-01T05:18:50.535Z,60.39
2023-01-01T05:21:19.421Z,60.36
2023-01-01T05:23:47.358Z,60.08
2023-01-01T05:26:17.465Z,60.20
2023-01-01T05:28:45.476Z,60.26
2023-01-01T05:31:14.527Z,60.23
2023-01-01T05:33:43.073Z,60.11
2023-01-01T05:36:12.055Z,60.18
2023-01-01T05:38:39.931Z,59.87
2023-01-01T05:41:08.574Z,59.71
2023-01-01T05:43:37.961Z,59.69
2023-01-01T05:46:06.805Z,59.60
2023-01-01T05:48:36.593Z,59.57
2023-01-01T05:51:05.326Z,59.37
2023-01-01T05:53:33.263Z,59.19
2023-01-01T05:56:01.203Z,59.24
2023-01-01T05:58:29.481Z,59.03
2023-01-01T06:00:58.919Z,58.80
2023-01-01T06:03:26.831Z,58.92
2023-01-01T06:05:54.805Z,58.67
2023-01-01T06:08:22.762Z,58.66
2023-01-01T06:10:50.723Z,58.63
2023-01-01T06:13:18.617Z,58.63
2023-01-01T06:15:46.535Z,58.51
2023-01-01T06:18:15.805Z,58.17
2023-01-01T06:20:43.697Z,58.28
2023-01-01T06:23:11.662Z,58.18
2023-01-01T06:25:39.585Z,58.39
2023-01-01T06:28:07.554Z,58.16
2023-01-01T06:30:35.540Z,58.35
2023-01-01T06:33:03.515Z,58.03
2023-01-01T06:35:32.868Z,58.30
2023-01-01T06:38:00.852Z,58.32
2023-01-01T06:40:28.864Z,58.33
2023-01-01T06:42:56.777Z,58.32
2023-01-01T06:45:24.652Z,58.35
2023-01-01T06:47:52.629Z,58.25
2023-01-01T06:50:20.575Z,58.35
2023-01-01T06:52:49.856Z,58.12
2023-01-01T06:55:17.926Z,58.30
2023-01-01T06:57:45.836Z,58.29
2023-01-01T07:00:15.418Z,58.32
2023-01-01T07:02:43.502Z,58.39
2023-01-01T07:05:11.489Z,58.25
2023-01-01T07:07:39.683Z,58.45
2023-01-01T07:10:10.011Z,58.10
2023-01-01T07:12:37.967Z,58.22
2023-01-01T07:15:06.735Z,58.26
2023-01-01T07:17:34.650Z,58.31
2023-01-01T07:20:02.581Z,58.32
2023-01-01T07:22:30.521Z,58.27
2023-01-01T07:24:58.434Z,58.51
2023-01-01T07:27:27.717Z,58.42
2023-01-01T07:29:55.698Z,58.62
2023-01-01T07:32:23.623Z,58.40
2023-01-01T07:34:51.568Z,58.41
2023-01-01T07:37:20.526Z,58.59
2023-01-01T07:39:48.475Z,58.46
2023-01-01T07:42:16.369Z,58.60
2023-01-01T07:44:45.641Z,58.66
2023-01-01T07:47:18.595Z,58.71
2023-01-01T07:49:46.476Z,58.62
2023-01-01T07:52:14.431Z,58.44
2023-01-01T07:54:42.352Z,58.52
2023-01-01T07:57:10.296Z,58.78
2023-01-01T07:59:38.222Z,58.47
2023-01-01T08:02:07.642Z,58.57
2023-01-01T08:04:35.657Z,58.64
2023-01-01T08:07:03.535Z,58.45
2023-01-01T08:09:31.613Z,58.51
2023-01-01T08:11:59.515Z,58.56
2023-01-01T08:14:27.433Z,58.62
2023-01-01T08:16:55.351Z,58.59
2023-01-01T08:19:24.636Z,58.79
2023-01-01T08:21:52.632Z,58.80
2023-01-01T08:24:20.538Z,58.77
2023-01-01T08:26:49.731Z,58.76
2023-01-01T08:29:17.731Z,58.82
2023-01-01T08:31:45.728Z,58.94
2023-01-01T08:34:13.721Z,58.82
2023-01-01T08:36:43.108Z,58.99
2023-01-01T08:39:11.604Z,58.87
2023-01-01T08:41:39.807Z,59.04
2023-01-01T08:44:07.809Z,58.94
2023-01-01T08:46:35.775Z,59.00
2023-01-01T08:49:03.705Z,58.83
2023-01-01T08:51:31.677Z,59.01
2023-01-01T08:54:00.970Z,59.17
2023-01-01T08:56:28.901Z,59.20
2023-01-01T08:59:03.528Z,59.16
2023-01-01T09:01:32.538Z,59.10
2023-01-01T09:04:00.496Z,59.14
2023-01-01T09:06:28.897Z,59.03
2023-01-01T09:08:56.852Z,58.99
2023-01-01T09:11:26.827Z,58.84
2023-01-01T09:13:55.023Z,58.75
2023-01-01T09:16:23.049Z,58.99
2023-01-01T09:18:51.101Z,58.95
2023-01-01T09:21:19.017Z,58.88
2023-01-01T09:23:46.989Z,59.07
2023-01-01T09:26:15.058Z,58.83
2023-01-01T09:28:44.392Z,58.65
2023-01-01T09:31:12.387Z,58.65
2023-01-01T09:33:40.889Z,58.61
2023-01-01T09:36:28.067Z,58.46
2023-01-01T09:38:56.466Z,58.22
2023-01-01T09:41:28.379Z,57.68
2023-01-01T09:44:01.480Z,58.02
2023-01-01T09:46:31.855Z,57.54
2023-01-01T09:49:02.726Z,57.67
2023-01-01T09:51:33.181Z,57.37
2023-01-01T09:54:02.557Z,57.34
2023-01-01T09:56:31.069Z,57.18
2023-01-01T09:59:00.800Z,57.44
2023-01-01T10:01:35.789Z,57.17
2023-01-01T10:04:09.169Z,57.24
2023-01-01T10:06:38.484Z,57.22
2023-01-01T10:09:10.916Z,57.14
2023-01-01T10:11:44.023Z,57.25
2023-01-01T10:14:17.916Z,57.20
2023-01-01T10:16:47.122Z,57.08
2023-01-01T10:19:23.052Z,56.69
2023-01-01T10:21:51.301Z,56.91
2023-01-01T10:24:29.186Z,56.81
2023-01-01T10:26:57.193Z,56.71
2023-01-01T10:29:36.142Z,56.44
2023-01-01T10:32:07.426Z,56.89
2023-01-01T10:34:36.947Z,56.45
2023-01-01T10:37:05.772Z,56.52
2023-01-01T10:39:33.687Z,56.30
2023-01-01T10:42:01.637Z,56.34
2023-01-01T10:44:32.563Z,56.61
2023-01-01T10:47:05.365Z,56.35
2023-01-01T10:49:33.473Z,56.59
2023-01-01T10:52:02.814Z,56.61
2023-01-01T10:54:34.764Z,56.70
2023-01-01T10:57:14.122Z,56.60
2023-01-01T10:59:49.820Z,56.74
2023-01-01T11:02:22.375Z,56.21
2023-01-01T11:04:50.723Z,56.48
2023-01-01T11:07:27.842Z,56.44
2023-01-01T11:10:03.710Z,56.59
2023-01-01T11:15:27.481Z,55.94
2023-01-01T11:18:04.266Z,56.00
2023-01-01T11:20:32.268Z,56.11
2023-01-01T11:23:00.541Z,56.08
2023-01-01T11:25:29.430Z,55.81
2023-01-01T11:28:18.090Z,56.23
2023-01-01T11:30:58.701Z,55.98
2023-01-01T11:33:26.938Z,56.35
2023-01-01T11:35:56.189Z,56.18
2023-01-01T11:38:29.777Z,56.18
2023-01-01T11:41:02.578Z,55.86
2023-01-01T11:43:39.462Z,55.80
2023-01-01T11:46:10.889Z,56.07
2023-01-01T11:48:42.910Z,55.81
2023-01-01T11:51:11.907Z,56.09
2023-01-01T11:53:41.404Z,56.06
2023-01-01T11:56:11.567Z,56.34
2023-01-01T11:58:42.765Z,55.92
2023-01-01T12:01:14.916Z,56.14
2023-01-01T12:03:44.053Z,56.08
2023-01-01T12:06:14.041Z,55.99
2023-01-01T12:08:45.494Z,56.32
2023-01-01T12:11:17.924Z,56.23
2023-01-01T12:13:48.199Z,56.53
2023-01-01T12:16:19.365Z,56.27
2023-01-01T12:18:48.738Z,56.27
2023-01-01T12:21:18.837Z,56.28
2023-01-01T12:23:46.759Z,56.28
2023-01-01T12:26:19.205Z,56.26
2023-01-01T12:29:11.027Z,56.06
2023-01-01T12:31:43.553Z,56.10
2023-01-01T12:34:13.381Z,56.23
2023-01-01T12:36:44.594Z,56.56
2023-01-01T12:40:17.036Z,56.14
2023-01-01T12:42:53.825Z,56.45
2023-01-01T12:45:44.206Z,56.23
2023-01-01T12:48:28.092Z,56.81
2023-01-01T12:51:05.017Z,56.43
2023-01-01T12:53:36.104Z,56.55
2023-01-01T12:56:15.149Z,56.14
2023-01-01T12:58:50.558Z,55.94
2023-01-01T13:01:21.047Z,55.59
2023-01-01T13:03:51.843Z,55.51
2023-01-01T13:06:28.182Z,55.70
2023-01-01T13:08:58.042Z,55.22
2023-01-01T13:11:27.395Z,54.79
2023-01-01T13:13:55.318Z,55.21
2023-01-01T13:16:36.989Z,55.22
2023-01-01T13:19:06.327Z,54.84
2023-01-01T13:21:34.203Z,54.86
2023-01-01T13:24:20.409Z,55.22
2023-01-01T13:26:49.209Z,54.47
2023-01-01T13:29:45.221Z,54.37
2023-01-01T13:32:13.726Z,54.47
2023-01-01T13:35:05.926Z,54.36
2023-01-01T13:37:56.102Z,54.70
2023-01-01T13:40:52.981Z,54.42
2023-01-01T13:43:31.110Z,54.87
2023-01-01T13:46:12.968Z,55.00
2023-01-01T13:49:07.830Z,55.19
2023-01-01T13:55:00.556Z,55.54
2023-01-01T13:57:38.124Z,55.45
2023-01-01T14:00:12.605Z,55.62
2023-01-01T14:02:43.178Z,55.61
2023-01-01T14:05:15.993Z,55.90
2023-01-01T14:07:52.954Z,55.59
2023-01-01T14:10:25.156Z,55.99
2023-01-01T14:12:54.030Z,55.64
2023-01-01T14:15:27.140Z,55.63
2023-01-01T14:17:56.428Z,56.02
2023-01-01T14:20:25.517Z,55.92
2023-01-01T14:22:53.636Z,56.15
2023-01-01T14:25:26.650Z,55.83
2023-01-01T14:27:55.249Z,55.87
2023-01-01T14:30:23.344Z,56.03
2023-01-01T14:32:57.467Z,55.79
2023-01-01T14:35:25.562Z,56.14
2023-01-01T14:37:53.593Z,56.29
2023-01-01T14:40:28.314Z,55.94
2023-01-01T14:42:58.708Z,56.09
2023-01-01T14:45:27.092Z,56.21
2023-01-01T14:47:55.977Z,56.03
2023-01-01T14:50:26.690Z,55.84
2023-01-01T14:52:56.981Z,55.96
2023-01-01T14:55:26.289Z,55.55
2023-01-01T14:57:57.706Z,55.54
2023-01-01T15:00:26.682Z,55.31
2023-01-01T15:02:54.661Z,54.76
2023-01-01T15:05:34.833Z,54.96
2023-01-01T15:08:04.163Z,54.92
2023-01-01T15:10:34.804Z,54.56
2023-01-01T15:13:06.402Z,54.65
2023-01-01T15:15:39.953Z,54.36
2023-01-01T15:18:08.073Z,54.31
2023-01-01T15:20:37.360Z,54.62
2023-01-01T15:23:09.951Z,54.88
2023-01-01T15:25:39.938Z,55.12
2023-01-01T15:28:07.871Z,55.54
2023-01-01T15:30:36.263Z,56.22
2023-01-01T15:33:07.652Z,56.16
2023-01-01T15:35:37.693Z,56.31
2023-01-01T15:38:10.524Z,56.68
2023-01-01T15:40:40.628Z,56.90
2023-01-01T15:43:17.562Z,56.75
2023-01-01T15:45:52.760Z,57.02
2023-01-01T15:48:22.923Z,56.87
2023-01-01T15:51:01.545Z,57.19
2023-01-01T15:53:30.201Z,57.04
2023-01-01T15:56:01.174Z,56.96
2023-01-01T15:58:33.868Z,56.95
2023-01-01T16:01:03.474Z,57.20
2023-01-01T16:03:31.931Z,57.20
2023-01-01T16:05:59.864Z,57.17
2023-01-01T16:08:28.179Z,57.38
2023-01-01T16:10:56.170Z,56.94
2023-01-01T16:13:25.830Z,57.20
2023-01-01T16:15:54.639Z,56.98
2023-01-01T16:18:22.535Z,57.06
2023-01-01T16:20:50.635Z,56.81
2023-01-01T16:23:18.764Z,56.57
2023-01-01T16:25:46.686Z,56.50
2023-01-01T16:28:14.779Z,56.55
2023-01-01T16:30:44.312Z,56.77
2023-01-01T16:33:14.316Z,56.64
2023-01-01T16:35:42.274Z,56.83
2023-01-01T16:38:10.506Z,56.59
2023-01-01T16:40:38.512Z,56.53
2023-01-01T16:43:12.526Z,56.56
2023-01-01T16:45:40.620Z,56.49
2023-01-01T16:48:09.939Z,56.22
2023-01-01T16:50:37.939Z,56.50
2023-01-01T16:53:05.840Z,56.60
2023-01-01T16:55:36.976Z,56.39
2023-01-01T16:58:46.855Z,56.36
2023-01-01T17:00:54.014Z,56.42
2023-01-01T17:03:23.362Z,56.77
2023-01-01T17:05:51.378Z,56.68
2023-01-01T17:08:19.318Z,56.67
2023-01-01T17:10:47.858Z,56.81
2023-01-01T17:13:16.044Z,56.63
2023-01-01T17:15:44.152Z,56.54
2023-01-01T17:18:12.545Z,56.66
2023-01-01T17:20:41.907Z,56.54
2023-01-01T17:23:09.909Z,56.49
2023-01-01T17:25:38.220Z,55.90
2023-01-01T17:28:06.260Z,56.12
2023-01-01T17:30:34.191Z,55.77
2023-01-01T17:33:02.079Z,55.80
2023-01-01T17:35:33.321Z,55.83
2023-01-01T17:38:02.791Z,55.32
2023-01-01T17:40:36.574Z,55.35
2023-01-01T17:43:04.984Z,55.43
2023-01-01T17:45:32.973Z,55.38
2023-01-01T17:48:00.884Z,55.50
2023-01-01T17:50:28.905Z,55.46
2023-01-01T17:52:56.821Z,55.17
2023-01-01T17:55:26.127Z,55.44
2023-01-01T17:57:54.058Z,55.42
2023-01-01T18:00:21.991Z,55.31
2023-01-01T18:02:50.042Z,55.40
2023-01-01T18:05:18.287Z,55.34
2023-01-01T18:07:46.211Z,55.56
2023-01-01T18:10:14.126Z,55.56
2023-01-01T18:12:43.481Z,55.29
2023-01-01T18:15:11.903Z,55.51
2023-01-01T18:17:39.886Z,55.69
2023-01-01T18:20:09.197Z,55.67
2023-01-01T18:22:42.927Z,55.71
2023-01-01T18:25:11.420Z,55.67
2023-01-01T18:27:39.335Z,55.49
2023-01-01T18:30:10.281Z,55.49
2023-01-01T18:32:38.240Z,55.66
2023-01-01T18:35:07.053Z,55.75
2023-01-01T18:37:36.732Z,55.71
2023-01-01T18:40:10.553Z,55.81
2023-01-01T18:42:44.765Z,55.48
2023-01-01T18:45:18.609Z,55.58
2023-01-01T18:47:46.839Z,55.48
2023-01-01T18:50:19.062Z,55.54
2023-01-01T18:52:47.894Z,55.36
2023-01-01T18:55:18.349Z,55.61
2023-01-01T18:57:49.312Z,55.68
2023-01-01T19:00:24.257Z,55.73
2023-01-01T19:02:56.039Z,55.65
2023-01-01T19:05:27.181Z,55.75
2023-01-01T19:07:58.928Z,55.95
2023-01-01T19:10:27.515Z,55.90
2023-01-01T19:12:56.271Z,55.92
2023-01-01T19:15:25.878Z,55.81
2023-01-01T19:17:54.522Z,56.15
2023-01-01T19:20:23.690Z,56.17
2023-01-01T19:22:51.737Z,55.98
2023-01-01T19:25:36.360Z,55.97
2023-01-01T19:28:26.959Z,55.97
2023-01-01T19:30:56.524Z,56.16
2023-01-01T19:33:24.510Z,56.18
2023-01-01T19:35:52.828Z,56.06
2023-01-01T19:38:20.860Z,56.11
2023-01-01T19:40:48.832Z,56.33
2023-01-01T19:43:16.737Z,56.15
2023-01-01T19:45:44.671Z,56.34
2023-01-01T19:48:14.185Z,56.07
2023-01-01T19:50:42.076Z,56.15
2023-01-01T19:53:10.118Z,56.08
2023-01-01T19:55:40.092Z,56.08
2023-01-01T19:58:07.984Z,56.07
2023-01-01T20:00:36.180Z,56.16
2023-01-01T20:03:42.880Z,56.17
2023-01-01T20:05:53.375Z,56.22
2023-01-01T20:08:22.362Z,56.18
2023-01-01T20:10:50.492Z,56.09
2023-01-01T20:13:18.468Z,56.19
2023-01-01T20:15:46.989Z,56.21
2023-01-01T20:18:15.049Z,56.13
2023-01-01T20:21:03.245Z,56.29
2023-01-01T20:23:32.682Z,56.23
2023-01-01T20:26:00.573Z,56.18
2023-01-01T20:28:45.787Z,56.21
2023-01-01T20:31:13.762Z,56.58
2023-01-01T20:33:41.792Z,56.59
2023-01-01T20:36:27.601Z,56.59
2023-01-01T20:38:56.917Z,56.49
2023-01-01T20:41:24.991Z,56.74
2023-01-01T20:43:53.289Z,56.55
2023-01-01T20:46:21.352Z,56.76
2023-01-01T20:48:49.322Z,56.77
2023-01-01T20:51:17.338Z,56.74
2023-01-01T20:53:45.252Z,56.69
2023-01-01T20:56:14.598Z,56.90
2023-01-01T20:58:48.107Z,56.85
2023-01-01T21:01:18.154Z,57.04
2023-01-01T21:03:46.300Z,56.80
2023-01-01T21:06:18.435Z,57.00
2023-01-01T21:08:49.869Z,56.91
2023-01-01T21:11:19.124Z,56.84
2023-01-01T21:13:47.097Z,57.11
2023-01-01T21:16:17.444Z,57.02
2023-01-01T21:18:45.506Z,57.46
2023-01-01T21:21:19.623Z,57.18
2023-01-01T21:23:47.571Z,57.36
2023-01-01T21:26:16.871Z,57.46
2023-01-01T21:28:46.207Z,57.46
2023-01-01T21:31:14.831Z,57.45
2023-01-01T21:33:43.242Z,57.47
2023-01-01T21:36:17.595Z,57.60
2023-01-01T21:38:45.564Z,57.55
2023-01-01T21:41:16.624Z,57.60
2023-01-01T21:43:47.943Z,57.77
2023-01-01T21:46:24.600Z,57.64
2023-01-01T21:48:56.662Z,57.85
2023-01-01T21:51:25.655Z,57.77
2023-01-01T21:53:54.185Z,57.88
2023-01-01T21:56:28.791Z,58.00
2023-01-01T21:59:19.327Z,57.70
2023-01-01T22:01:47.345Z,57.98
2023-01-01T22:04:22.427Z,57.97
2023-01-01T22:06:51.851Z,57.63
2023-01-01T22:09:22.295Z,58.08
2023-01-01T22:11:50.961Z,57.87
2023-01-01T22:14:20.878Z,57.98
2023-01-01T22:16:48.956Z,57.71
2023-01-01T22:19:18.009Z,57.99
2023-01-01T22:21:45.951Z,58.08
2023-01-01T22:24:31.808Z,57.97
2023-01-01T22:27:03.471Z,57.93
2023-01-01T22:29:33.487Z,58.04
2023-01-01T22:32:03.692Z,58.05
2023-01-01T22:34:32.293Z,57.83
2023-01-01T22:37:00.234Z,57.89
2023-01-01T22:39:30.582Z,58.03
2023-01-01T22:41:58.598Z,58.06
2023-01-01T22:44:27.161Z,58.27
2023-01-01T22:46:58.729Z,58.08
2023-01-01T22:49:35.233Z,58.32
2023-01-01T22:52:03.206Z,58.16
2023-01-01T22:54:31.140Z,58.23
2023-01-01T22:56:59.164Z,58.48
2023-01-01T22:59:27.140Z,58.53
2023-01-01T23:01:56.425Z,58.59
2023-01-01T23:04:24.344Z,58.34
2023-01-01T23:06:52.513Z,58.55
2023-01-01T23:09:20.528Z,58.36
2023-01-01T23:11:48.518Z,58.47
2023-01-01T23:14:38.567Z,58.38
2023-01-01T23:17:08.607Z,58.48
2023-01-01T23:19:36.540Z,58.36
2023-01-01T23:22:04.696Z,58.31
2023-01-01T23:24:32.593Z,58.42
2023-01-01T23:27:00.735Z,58.63
2023-01-01T23:29:29.841Z,58.52
2023-01-01T23:31:57.918Z,58.84
2023-01-01T23:34:27.211Z,58.80
2023-01-01T23:36:55.093Z,59.14
2023-01-01T23:39:22.942Z,58.96
2023-01-01T23:41:51.601Z,59.21
2023-01-01T23:44:19.482Z,59.24
2023-01-01T23:46:47.459Z,58.91
2023-01-01T23:49:15.423Z,59.00
2023-01-01T23:51:44.679Z,59.19
2023-01-01T23:54:12.603Z,59.14
2023-01-01T23:56:40.520Z,58.81
2023-01-01T23:59:08.438Z,59.04
